Time;durP1;ratioP1;P1;durP2;ratioP2;P2;SDS_P1;SDS_P2;PMS_P1;PMS_P2;Temp;Humidity;BMP_temperature;BMP_pressure;BME280_temperature;BME280_humidity;BME280_pressure;Samples;Min_cycle;Max_cycle;Signal;HPM_P1;HPM_P2
2022/05/16 00:00:56;;;;;;;2.13;0.90;;;11.40;99.90;;;;;;5021875;28;20196;-46
2022/05/16 00:03:24;;;;;;;1.87;0.87;;;11.40;99.90;;;;;;5018860;28;20196;-48
2022/05/16 00:05:51;;;;;;;2.33;0.90;;;11.50;99.90;;;;;;5011419;28;20224;-48
2022/05/16 00:08:18;;;;;;;4.17;1.23;;;11.50;99.90;;;;;;5023625;28;20207;-46
2022/05/16 00:10:47;;;;;;;2.57;1.13;;;11.40;99.90;;;;;;5016591;28;20295;-46
2022/05/16 00:13:13;;;;;;;2.17;1.30;;;11.30;99.90;;;;;;5019343;28;20212;-46
2022/05/16 00:15:40;;;;;;;3.27;1.00;;;11.30;99.90;;;;;;5004087;28;20236;-49
2022/05/16 00:18:07;;;;;;;2.60;1.27;;;11.30;99.90;;;;;;5007562;28;20295;-48
2022/05/16 00:20:34;;;;;;;1.20;1.03;;;11.30;99.90;;;;;;5017556;28;20747;-47
2022/05/16 00:23:00;;;;;;;1.27;1.17;;;11.30;99.90;;;;;;5023995;28;20196;-48
2022/05/16 00:25:27;;;;;;;5.10;1.30;;;11.30;99.90;;;;;;5017943;28;20555;-47
2022/05/16 00:27:55;;;;;;;4.03;1.30;;;11.30;99.90;;;;;;5022425;28;20251;-48
2022/05/16 00:30:22;;;;;;;2.27;1.10;;;11.30;99.90;;;;;;5006558;28;20200;-46
2022/05/16 00:32:51;;;;;;;4.27;1.30;;;11.30;99.90;;;;;;5021645;28;20199;-46
2022/05/16 00:35:20;;;;;;;0.80;0.80;;;11.20;99.90;;;;;;5018892;28;20200;-46
2022/05/16 00:37:47;;;;;;;1.80;1.20;;;11.20;99.90;;;;;;5016889;28;20241;-46
2022/05/16 00:40:16;;;;;;;2.30;1.17;;;11.20;99.90;;;;;;5019718;28;20212;-46
2022/05/16 00:42:44;;;;;;;2.13;1.07;;;11.10;99.90;;;;;;5020855;28;20200;-48
2022/05/16 00:45:16;;;;;;;1.67;1.37;;;11.10;99.90;;;;;;5007376;28;20291;-50
2022/05/16 00:47:43;;;;;;;1.60;1.50;;;11.10;99.90;;;;;;5022907;28;20239;-50
2022/05/16 00:50:10;;;;;;;1.60;1.00;;;11.10;99.90;;;;;;5024739;28;20206;-48
2022/05/16 00:52:41;;;;;;;5.83;1.53;;;11.00;99.90;;;;;;5019843;28;20262;-48
2022/05/16 00:55:11;;;;;;;1.53;1.23;;;11.00;99.90;;;;;;5024649;28;20246;-46
2022/05/16 00:57:39;;;;;;;2.33;1.30;;;10.90;99.90;;;;;;5015700;28;20227;-48
2022/05/16 01:00:10;;;;;;;1.80;1.20;;;10.80;99.90;;;;;;5004742;28;20219;-47
2022/05/16 01:05:27;;;;;;;0.90;0.90;;;10.80;99.90;;;;;;5020671;28;20200;-52
2022/05/16 01:07:58;;;;;;;1.80;1.40;;;10.70;99.90;;;;;;5016499;28;20203;-47
2022/05/16 01:10:26;;;;;;;3.73;1.30;;;10.60;99.90;;;;;;5020065;28;20211;-48
2022/05/16 01:12:54;;;;;;;1.47;1.10;;;10.60;99.90;;;;;;5015961;28;20200;-46
2022/05/16 01:15:30;;;;;;;4.80;1.50;;;10.60;99.90;;;;;;5023540;28;20282;-51
2022/05/16 01:17:58;;;;;;;5.07;1.17;;;10.60;99.90;;;;;;5013059;28;20214;-49
2022/05/16 01:20:40;;;;;;;4.17;1.67;;;10.60;99.90;;;;;;5023039;28;20230;-49
2022/05/16 01:23:09;;;;;;;4.83;1.30;;;10.50;99.90;;;;;;5025215;28;20211;-47
2022/05/16 01:25:35;;;;;;;2.77;1.10;;;10.50;99.90;;;;;;5021669;28;20224;-47
2022/05/16 01:28:04;;;;;;;2.13;1.40;;;10.40;99.90;;;;;;5013449;28;20208;-49
2022/05/16 01:30:33;;;;;;;1.73;1.50;;;10.40;99.90;;;;;;5021191;28;20193;-50
2022/05/16 01:33:00;;;;;;;2.47;1.33;;;10.40;99.90;;;;;;5003553;28;20223;-47
2022/05/16 01:35:29;;;;;;;2.97;1.30;;;10.40;99.90;;;;;;5020444;28;20688;-49
2022/05/16 01:40:43;;;;;;;5.60;1.60;;;10.30;99.90;;;;;;5011919;28;20314;-48
2022/05/16 01:43:10;;;;;;;2.93;1.70;;;10.30;99.90;;;;;;5018119;28;20247;-46
2022/05/16 01:45:38;;;;;;;4.83;1.40;;;10.30;99.90;;;;;;5012574;28;20228;-50
2022/05/16 01:48:05;;;;;;;4.63;1.33;;;10.20;99.90;;;;;;5001798;28;20224;-46
2022/05/16 01:50:33;;;;;;;2.57;1.30;;;10.20;99.90;;;;;;5027081;28;20192;-48
2022/05/16 01:53:00;;;;;;;2.60;1.70;;;10.20;99.90;;;;;;5014700;28;20204;-46
2022/05/16 01:55:26;;;;;;;3.27;1.50;;;10.20;99.90;;;;;;5014446;28;20215;-48
2022/05/16 01:57:55;;;;;;;2.33;1.33;;;10.20;99.90;;;;;;5014448;28;20291;-46
2022/05/16 02:00:23;;;;;;;3.67;1.90;;;10.20;99.90;;;;;;5020161;28;20579;-49
2022/05/16 02:02:49;;;;;;;3.30;1.70;;;10.10;99.90;;;;;;5010304;28;20277;-47
2022/05/16 02:05:21;;;;;;;2.40;1.70;;;10.10;99.90;;;;;;5019378;28;20207;-46
2022/05/16 02:07:50;;;;;;;2.83;1.30;;;10.10;99.90;;;;;;5019816;28;20191;-46
2022/05/16 02:10:19;;;;;;;3.40;1.60;;;10.10;99.90;;;;;;5022956;28;20204;-47
2022/05/16 02:12:46;;;;;;;3.17;1.63;;;10.10;99.90;;;;;;5017852;28;20200;-46
2022/05/16 02:15:17;;;;;;;3.97;1.63;;;10.10;99.90;;;;;;5015529;28;20211;-46
2022/05/16 02:17:44;;;;;;;4.27;1.73;;;10.00;99.90;;;;;;5009012;28;20900;-46
2022/05/16 02:20:12;;;;;;;4.30;1.60;;;10.10;99.90;;;;;;5018343;28;20676;-47
2022/05/16 02:25:23;;;;;;;3.53;1.40;;;10.00;99.90;;;;;;5014961;28;20195;-46
2022/05/16 02:27:51;;;;;;;3.23;1.63;;;10.00;99.90;;;;;;5013842;28;20198;-50
2022/05/16 02:30:22;;;;;;;4.47;1.90;;;10.10;99.90;;;;;;5020278;28;20668;-48
2022/05/16 02:32:49;;;;;;;3.17;1.67;;;10.00;99.90;;;;;;5005214;28;20240;-51
2022/05/16 02:35:16;;;;;;;2.00;1.57;;;10.00;99.90;;;;;;5014975;28;20568;-51
2022/05/16 02:37:43;;;;;;;3.30;1.63;;;10.00;99.90;;;;;;5014118;28;20206;-48
2022/05/16 02:40:11;;;;;;;3.57;1.80;;;9.90;99.90;;;;;;5017354;28;20254;-46
2022/05/16 02:42:38;;;;;;;4.87;1.97;;;10.00;99.90;;;;;;5020521;28;20199;-49
2022/05/16 02:45:06;;;;;;;3.93;1.90;;;9.90;99.90;;;;;;5017669;28;20208;-47
2022/05/16 02:47:35;;;;;;;5.87;1.80;;;9.90;99.90;;;;;;5006614;28;20224;-51
2022/05/16 02:50:03;;;;;;;5.90;1.77;;;9.80;99.90;;;;;;5019466;28;20192;-46
2022/05/16 02:52:29;;;;;;;3.73;2.13;;;9.80;99.90;;;;;;5017620;28;20196;-47
2022/05/16 02:54:56;;;;;;;4.83;1.97;;;9.90;99.90;;;;;;5018560;28;20831;-44
2022/05/16 02:57:23;;;;;;;4.17;1.90;;;9.90;99.90;;;;;;5016792;28;20282;-44
2022/05/16 02:59:49;;;;;;;4.33;1.50;;;9.80;99.90;;;;;;5016749;28;20219;-45
2022/05/16 03:02:16;;;;;;;2.77;1.80;;;9.90;99.90;;;;;;5015436;28;20211;-52
2022/05/16 03:04:44;;;;;;;4.33;1.77;;;9.80;99.90;;;;;;5007342;28;20215;-49
2022/05/16 03:07:10;;;;;;;5.03;1.97;;;9.80;99.90;;;;;;5025790;28;20243;-50
2022/05/16 03:09:37;;;;;;;2.70;1.90;;;9.80;99.90;;;;;;5021509;28;20254;-47
2022/05/16 03:12:05;;;;;;;5.97;1.60;;;9.80;99.90;;;;;;5024247;28;20207;-47
2022/05/16 03:14:35;;;;;;;2.40;1.70;;;9.70;99.90;;;;;;5024588;28;20672;-48
2022/05/16 03:17:02;;;;;;;4.53;1.70;;;9.70;99.90;;;;;;5019842;28;20399;-47
2022/05/16 03:19:30;;;;;;;3.00;2.00;;;9.70;99.90;;;;;;5011266;28;20208;-48
2022/05/16 03:21:58;;;;;;;4.43;1.90;;;9.70;99.90;;;;;;5023283;28;20251;-51
2022/05/16 03:24:25;;;;;;;4.33;1.50;;;9.70;99.90;;;;;;5027066;28;20196;-47
2022/05/16 03:26:52;;;;;;;4.87;2.40;;;9.60;99.90;;;;;;5021153;28;20300;-45
2022/05/16 03:29:20;;;;;;;2.33;1.77;;;9.70;99.90;;;;;;5026235;28;20199;-47
2022/05/16 03:31:47;;;;;;;5.90;2.23;;;9.60;99.90;;;;;;5012970;28;20267;-51
2022/05/16 03:34:13;;;;;;;5.60;1.73;;;9.60;99.90;;;;;;5024253;28;20866;-47
2022/05/16 03:36:40;;;;;;;3.10;1.70;;;9.60;99.90;;;;;;5005007;28;20712;-48
2022/05/16 03:41:54;;;;;;;6.27;2.47;;;9.60;99.90;;;;;;5023716;28;20218;-46
2022/05/16 03:44:21;;;;;;;3.13;1.80;;;9.60;99.90;;;;;;5019460;28;20199;-48
2022/05/16 03:46:49;;;;;;;6.10;2.00;;;9.60;99.90;;;;;;5016671;28;20313;-46
2022/05/16 03:49:16;;;;;;;7.27;2.00;;;9.60;99.90;;;;;;5014509;28;20211;-46
2022/05/16 03:51:43;;;;;;;4.87;1.70;;;9.70;99.90;;;;;;5004554;28;20212;-48
2022/05/16 03:54:11;;;;;;;3.20;1.70;;;9.70;99.90;;;;;;5019909;28;20207;-45
2022/05/16 03:56:39;;;;;;;3.10;1.83;;;9.70;99.90;;;;;;5021736;28;20311;-50
2022/05/16 03:59:05;;;;;;;2.50;1.87;;;9.70;99.90;;;;;;5025259;28;20254;-47
2022/05/16 04:01:33;;;;;;;4.00;1.90;;;9.70;99.90;;;;;;5018323;28;20572;-50
2022/05/16 04:04:00;;;;;;;7.23;1.93;;;9.70;99.90;;;;;;5010577;28;20193;-50
2022/05/16 04:06:27;;;;;;;5.20;1.67;;;9.70;99.90;;;;;;5007173;28;20228;-48
2022/05/16 04:08:54;;;;;;;2.23;1.77;;;9.80;99.90;;;;;;5011789;28;20204;-50
2022/05/16 04:11:22;;;;;;;3.63;1.97;;;9.80;99.90;;;;;;5018683;28;20176;-47
2022/05/16 04:13:49;;;;;;;5.37;2.70;;;9.80;99.90;;;;;;5019950;28;20208;-46
2022/05/16 04:16:16;;;;;;;2.70;1.93;;;9.90;99.90;;;;;;5017758;28;20970;-51
2022/05/16 04:18:44;;;;;;;5.07;1.87;;;9.90;99.90;;;;;;5021701;28;20212;-46
2022/05/16 04:21:11;;;;;;;3.43;1.80;;;9.90;99.90;;;;;;5009243;28;20302;-48
2022/05/16 04:23:38;;;;;;;2.50;1.60;;;10.00;99.90;;;;;;5018716;28;20196;-47
2022/05/16 04:26:04;;;;;;;4.33;1.97;;;9.90;99.90;;;;;;5021515;28;20220;-50
2022/05/16 04:28:32;;;;;;;3.73;1.90;;;9.90;99.90;;;;;;5019710;28;20195;-45
2022/05/16 04:30:59;;;;;;;3.63;2.00;;;9.90;99.90;;;;;;5018966;28;20231;-48
2022/05/16 04:33:26;;;;;;;3.40;1.93;;;10.00;99.90;;;;;;5009044;28;20220;-48
2022/05/16 04:35:53;;;;;;;5.83;2.47;;;10.00;99.90;;;;;;5000819;28;20220;-52
2022/05/16 04:38:20;;;;;;;4.50;1.93;;;10.00;99.90;;;;;;5020592;28;20199;-50
2022/05/16 04:43:33;;;;;;;5.67;1.90;;;10.10;99.90;;;;;;5016173;28;20869;-49
2022/05/16 04:46:01;;;;;;;4.97;2.30;;;10.10;99.90;;;;;;5001454;28;20232;-48
2022/05/16 04:48:28;;;;;;;4.83;1.90;;;10.20;99.90;;;;;;5018786;28;20587;-46
2022/05/16 04:50:55;;;;;;;5.50;2.30;;;10.20;99.90;;;;;;5000735;28;20200;-50
2022/05/16 04:53:22;;;;;;;2.70;2.20;;;10.30;99.90;;;;;;5016374;28;20195;-47
2022/05/16 04:55:49;;;;;;;4.00;2.17;;;10.30;99.90;;;;;;5022579;28;20220;-52
2022/05/16 04:58:16;;;;;;;4.73;1.80;;;10.40;99.90;;;;;;5017324;28;20219;-49
2022/05/16 05:00:44;;;;;;;7.23;2.20;;;10.50;99.90;;;;;;5019492;28;20216;-48
2022/05/16 05:03:11;;;;;;;4.43;2.30;;;10.60;99.90;;;;;;5019180;28;20267;-48
2022/05/16 05:05:38;;;;;;;4.37;2.43;;;10.70;99.90;;;;;;5019348;28;20912;-46
2022/05/16 05:08:05;;;;;;;6.00;2.13;;;10.80;99.90;;;;;;4999704;28;20857;-51
2022/05/16 05:16:08;;;;;;;4.67;2.10;;;11.10;99.90;;;;;;5015251;28;20266;-47
2022/05/16 05:18:36;;;;;;;2.40;1.70;;;11.20;99.90;;;;;;5017994;28;20274;-46
2022/05/16 05:21:04;;;;;;;4.87;2.10;;;11.40;99.90;;;;;;5013274;28;20226;-46
2022/05/16 05:23:34;;;;;;;3.63;1.83;;;11.50;99.90;;;;;;5008314;28;20211;-46
2022/05/16 05:26:00;;;;;;;3.73;2.10;;;11.60;99.90;;;;;;5012534;28;20247;-46
2022/05/16 05:28:27;;;;;;;5.47;1.80;;;11.70;99.90;;;;;;5017058;28;20208;-47
2022/05/16 05:30:55;;;;;;;7.47;2.17;;;11.90;99.90;;;;;;5017484;28;20203;-46
2022/05/16 05:33:23;;;;;;;2.80;1.87;;;12.00;99.90;;;;;;5020162;28;20227;-46
2022/05/16 05:35:50;;;;;;;5.43;1.77;;;12.20;99.90;;;;;;5010609;28;20228;-51
2022/05/16 05:38:18;;;;;;;4.97;1.60;;;12.30;99.90;;;;;;5004822;28;20210;-46
2022/05/16 05:40:45;;;;;;;6.27;1.93;;;12.40;99.90;;;;;;5018057;28;20216;-49
2022/05/16 05:43:11;;;;;;;8.37;2.20;;;12.50;99.90;;;;;;5020284;28;20257;-46
2022/05/16 05:45:39;;;;;;;4.00;1.70;;;12.60;99.90;;;;;;5023047;28;20335;-47
2022/05/16 05:48:07;;;;;;;2.57;1.53;;;12.70;99.90;;;;;;5013667;28;20208;-46
2022/05/16 05:50:35;;;;;;;4.57;2.00;;;12.80;99.90;;;;;;5014822;28;20195;-47
2022/05/16 05:53:03;;;;;;;2.47;1.63;;;12.90;99.90;;;;;;5002457;28;20222;-46
2022/05/16 05:55:29;;;;;;;5.47;2.20;;;13.00;99.90;;;;;;5010880;28;20683;-50
2022/05/16 05:57:58;;;;;;;4.47;1.73;;;13.10;99.90;;;;;;5014552;28;20208;-51
2022/05/16 06:00:25;;;;;;;4.93;2.23;;;13.30;99.90;;;;;;5017024;28;20192;-47
2022/05/16 06:02:52;;;;;;;3.17;1.80;;;13.40;99.90;;;;;;5021980;28;20282;-50
2022/05/16 06:05:21;;;;;;;3.17;1.70;;;13.50;99.90;;;;;;5015563;28;20253;-50
2022/05/16 06:07:49;;;;;;;5.33;1.63;;;13.60;99.90;;;;;;5023522;28;20206;-48
2022/05/16 06:10:16;;;;;;;6.43;1.63;;;13.70;99.90;;;;;;5010666;28;20208;-52
2022/05/16 06:12:44;;;;;;;3.30;2.03;;;13.80;99.90;;;;;;5013258;28;20687;-46
2022/05/16 06:15:12;;;;;;;4.40;1.73;;;13.90;99.90;;;;;;5019690;28;20258;-53
2022/05/16 06:17:40;;;;;;;5.40;1.77;;;14.00;99.90;;;;;;5021827;28;20535;-46
2022/05/16 06:20:09;;;;;;;4.67;1.90;;;14.10;99.90;;;;;;5022125;28;20661;-47
2022/05/16 06:22:38;;;;;;;3.67;1.50;;;14.20;99.90;;;;;;4997607;28;20223;-48
2022/05/16 06:27:53;;;;;;;3.70;1.73;;;14.30;99.90;;;;;;5009855;28;20211;-45
2022/05/16 06:30:20;;;;;;;7.87;2.03;;;14.40;99.90;;;;;;5011463;28;20207;-45
2022/05/16 06:32:47;;;;;;;3.30;1.83;;;14.50;99.90;;;;;;5014541;28;20584;-46
2022/05/16 06:35:15;;;;;;;3.30;1.90;;;14.60;99.90;;;;;;5010653;28;20218;-47
2022/05/16 06:37:42;;;;;;;5.90;1.80;;;14.60;99.90;;;;;;5015717;28;20254;-45
2022/05/16 06:40:12;;;;;;;5.27;1.97;;;14.80;99.90;;;;;;5015039;28;20283;-49
2022/05/16 06:42:39;;;;;;;6.37;2.23;;;14.90;99.90;;;;;;5021632;28;20924;-47
2022/05/16 06:45:07;;;;;;;3.97;1.80;;;14.90;99.90;;;;;;5024717;28;20270;-46
2022/05/16 06:47:34;;;;;;;3.77;2.23;;;15.00;99.90;;;;;;5015438;28;20228;-45
2022/05/16 06:50:01;;;;;;;2.90;1.60;;;15.00;99.90;;;;;;5019187;28;20225;-45
2022/05/16 06:52:28;;;;;;;4.93;2.03;;;15.10;99.90;;;;;;5020821;28;20853;-50
2022/05/16 06:54:55;;;;;;;2.63;1.40;;;15.20;99.90;;;;;;5017574;28;20200;-45
2022/05/16 06:57:23;;;;;;;6.43;1.77;;;15.30;99.90;;;;;;5008460;28;20253;-45
2022/05/16 06:59:49;;;;;;;3.47;1.90;;;15.40;99.90;;;;;;5026536;28;20697;-45
2022/05/16 07:02:16;;;;;;;3.23;1.77;;;15.50;99.90;;;;;;5021586;28;20314;-45
2022/05/16 07:04:43;;;;;;;3.13;1.90;;;15.50;99.90;;;;;;5011727;28;20204;-45
2022/05/16 07:07:10;;;;;;;4.20;1.80;;;15.60;99.90;;;;;;5020802;28;20223;-45
2022/05/16 07:09:38;;;;;;;3.07;1.70;;;15.60;99.90;;;;;;5019948;28;20199;-45
2022/05/16 07:12:06;;;;;;;2.67;1.63;;;15.70;99.90;;;;;;5010121;28;20214;-45
2022/05/16 07:14:34;;;;;;;3.93;1.67;;;15.80;99.90;;;;;;5023619;28;20341;-50
2022/05/16 07:17:01;;;;;;;5.00;1.87;;;15.90;99.90;;;;;;5023940;28;20306;-47
2022/05/16 07:19:29;;;;;;;5.17;1.77;;;16.00;99.90;;;;;;5020663;28;20215;-45
2022/05/16 07:21:56;;;;;;;4.30;1.60;;;16.10;99.90;;;;;;5023861;28;20224;-45
2022/05/16 07:24:23;;;;;;;10.53;2.03;;;16.20;99.90;;;;;;5013474;28;20377;-45
2022/05/16 07:29:36;;;;;;;2.27;1.67;;;16.40;99.90;;;;;;5030085;28;20187;-45
2022/05/16 07:32:03;;;;;;;5.10;2.03;;;16.60;99.90;;;;;;5023717;28;20295;-48
2022/05/16 07:34:30;;;;;;;3.87;1.43;;;16.70;99.90;;;;;;5014031;28;21824;-46
2022/05/16 07:36:57;;;;;;;5.23;1.80;;;16.70;99.90;;;;;;5023857;28;20254;-49
2022/05/16 07:39:23;;;;;;;4.37;1.93;;;16.80;99.90;;;;;;5022316;28;20871;-52
2022/05/16 07:41:52;;;;;;;4.63;1.90;;;16.90;99.90;;;;;;5000969;28;20705;-50
2022/05/16 07:44:19;;;;;;;3.00;1.53;;;17.00;99.90;;;;;;5029947;28;20222;-47
2022/05/16 07:46:47;;;;;;;2.53;1.80;;;17.10;99.90;;;;;;5021946;28;20876;-49
2022/05/16 07:49:14;;;;;;;3.40;1.30;;;17.10;99.90;;;;;;5017126;28;20199;-51
2022/05/16 07:51:41;;;;;;;5.40;2.07;;;17.20;99.90;;;;;;5020060;28;20220;-45
2022/05/16 07:54:09;;;;;;;5.20;2.17;;;17.20;99.90;;;;;;5021328;28;20285;-45
2022/05/16 07:56:36;;;;;;;5.43;1.90;;;17.30;99.90;;;;;;5004038;28;20220;-47
2022/05/16 07:59:03;;;;;;;2.70;2.03;;;17.30;99.90;;;;;;5025151;28;20542;-49
2022/05/16 08:01:30;;;;;;;2.60;1.90;;;17.30;99.90;;;;;;5020764;28;20215;-50
2022/05/16 08:03:59;;;;;;;2.90;1.50;;;17.40;99.90;;;;;;5021498;28;20207;-48
2022/05/16 08:06:27;;;;;;;1.90;1.60;;;17.50;99.90;;;;;;5011814;28;20224;-47
2022/05/16 08:11:47;;;;;;;2.80;1.70;;;17.70;99.90;;;;;;4980095;28;20542;-49
2022/05/16 08:14:13;;;;;;;4.30;1.40;;;17.70;99.90;;;;;;5006939;28;20557;-45
2022/05/16 08:16:40;;;;;;;3.13;1.50;;;17.70;99.90;;;;;;5022859;28;20222;-47
2022/05/16 08:19:09;;;;;;;7.47;1.70;;;17.80;99.90;;;;;;5021021;28;21041;-46
2022/05/16 08:21:36;;;;;;;2.73;2.00;;;17.90;99.90;;;;;;4997243;28;20223;-52
2022/05/16 08:24:07;;;;;;;2.10;1.47;;;18.10;99.90;;;;;;5021118;28;20219;-52
2022/05/16 08:26:34;;;;;;;3.53;1.80;;;18.20;99.90;;;;;;5019701;28;20212;-55
2022/05/16 08:29:01;;;;;;;3.27;1.70;;;18.30;99.90;;;;;;5007151;28;20214;-53
2022/05/16 08:31:28;;;;;;;2.10;1.57;;;18.40;99.90;;;;;;5013937;28;20192;-55
2022/05/16 08:33:55;;;;;;;2.00;1.80;;;18.50;99.90;;;;;;5021859;28;20686;-56
2022/05/16 08:41:54;;;;;;;2.07;1.80;;;18.50;99.30;;;;;;5027874;28;20357;-54
2022/05/16 08:44:25;;;;;;;3.20;1.60;;;18.60;98.70;;;;;;5004550;28;20212;-54
2022/05/16 08:47:08;;;;;;;3.43;1.73;;;18.60;98.20;;;;;;5035407;28;20633;-57
2022/05/16 08:49:41;;;;;;;3.77;1.77;;;18.70;98.00;;;;;;5021774;28;20195;-56
2022/05/16 08:52:18;;;;;;;2.27;1.27;;;18.90;97.60;;;;;;5023095;28;20196;-55
2022/05/16 08:54:50;;;;;;;3.17;1.60;;;19.10;97.40;;;;;;5024534;28;20203;-56
2022/05/16 08:57:29;;;;;;;4.00;1.40;;;19.10;97.30;;;;;;5021217;28;20301;-56
2022/05/16 09:00:01;;;;;;;3.27;1.70;;;19.20;97.20;;;;;;5014932;28;20206;-56
2022/05/16 09:02:32;;;;;;;3.90;1.70;;;19.30;97.00;;;;;;5023913;28;20221;-56
2022/05/16 09:05:09;;;;;;;3.77;1.90;;;19.40;96.50;;;;;;5024360;28;20196;-57
2022/05/16 09:07:43;;;;;;;3.10;1.37;;;19.60;95.10;;;;;;5022636;28;20237;-56
2022/05/16 09:10:12;;;;;;;3.53;1.73;;;19.60;95.30;;;;;;5033776;28;20196;-53
2022/05/16 09:12:47;;;;;;;5.97;1.67;;;19.70;94.90;;;;;;5023748;28;20881;-53
2022/05/16 09:15:26;;;;;;;3.73;1.33;;;19.90;95.10;;;;;;5011346;28;20225;-53
2022/05/16 09:18:05;;;;;;;3.33;1.60;;;20.00;94.90;;;;;;5024648;28;20246;-53
2022/05/16 09:20:42;;;;;;;2.90;1.60;;;20.10;94.60;;;;;;5021917;28;20191;-54
2022/05/16 09:23:20;;;;;;;3.43;1.40;;;20.20;95.10;;;;;;5022229;28;20215;-51
2022/05/16 09:25:58;;;;;;;5.13;1.60;;;20.10;94.40;;;;;;5017682;28;20223;-51
2022/05/16 09:28:35;;;;;;;2.10;1.43;;;20.10;94.40;;;;;;5004929;28;20200;-52
2022/05/16 09:31:10;;;;;;;2.63;1.43;;;20.10;94.20;;;;;;5030719;28;20203;-53
2022/05/16 09:33:43;;;;;;;1.50;1.27;;;20.20;94.20;;;;;;5028431;28;20923;-52
2022/05/16 09:36:13;;;;;;;2.30;1.30;;;20.30;93.30;;;;;;5022052;28;20216;-53
2022/05/16 09:38:44;;;;;;;2.73;1.30;;;20.30;92.90;;;;;;5024270;28;20196;-48
2022/05/16 09:41:17;;;;;;;6.07;1.57;;;20.40;92.80;;;;;;5032734;28;20211;-53
2022/05/16 09:43:54;;;;;;;2.80;1.70;;;20.50;93.00;;;;;;5023669;28;20692;-52
2022/05/16 09:46:31;;;;;;;5.93;1.63;;;20.60;92.60;;;;;;5009257;28;20215;-50
2022/05/16 09:49:09;;;;;;;1.90;1.50;;;20.70;92.70;;;;;;5024998;28;20208;-50
2022/05/16 09:51:43;;;;;;;5.33;1.73;;;20.80;93.40;;;;;;5021940;28;20983;-54
2022/05/16 09:54:15;;;;;;;4.40;1.60;;;21.00;91.30;;;;;;5021469;28;20200;-51
2022/05/16 09:56:57;;;;;;;3.93;1.60;;;21.20;90.40;;;;;;5023268;28;20715;-49
2022/05/16 09:59:39;;;;;;;1.87;1.23;;;21.20;90.50;;;;;;5013619;28;20184;-52
2022/05/16 10:02:26;;;;;;;2.23;1.60;;;21.20;90.30;;;;;;5009038;28;20219;-54
2022/05/16 10:04:56;;;;;;;5.23;1.73;;;21.20;88.50;;;;;;5028949;28;20677;-54
2022/05/16 10:07:29;;;;;;;2.20;1.37;;;21.20;89.60;;;;;;5019547;28;21039;-53
2022/05/16 10:09:59;;;;;;;1.80;1.50;;;21.20;88.60;;;;;;5028976;28;20204;-53
2022/05/16 10:12:28;;;;;;;2.30;1.30;;;21.30;88.00;;;;;;5019571;28;20800;-52
2022/05/16 10:14:55;;;;;;;3.37;1.30;;;21.40;86.60;;;;;;5016128;28;20219;-52
2022/05/16 10:17:29;;;;;;;3.67;1.50;;;21.50;86.20;;;;;;5001822;28;20906;-48
2022/05/16 10:20:00;;;;;;;4.23;1.40;;;21.70;86.50;;;;;;5022457;28;20290;-55
2022/05/16 10:22:29;;;;;;;2.40;1.40;;;21.80;83.50;;;;;;5019885;28;20215;-51
2022/05/16 10:24:59;;;;;;;5.23;1.70;;;21.80;82.30;;;;;;5022985;28;20300;-52
2022/05/16 10:27:33;;;;;;;3.20;1.70;;;21.80;81.10;;;;;;5020256;28;20218;-50
2022/05/16 10:30:04;;;;;;;3.30;1.50;;;21.90;79.30;;;;;;5023388;28;20214;-53
2022/05/16 10:35:28;;;;;;;3.30;1.63;;;22.10;77.30;;;;;;5027017;28;20187;-49
2022/05/16 10:38:00;;;;;;;3.23;1.20;;;22.20;75.90;;;;;;5016919;28;20573;-48
2022/05/16 10:40:32;;;;;;;4.33;1.30;;;22.30;76.60;;;;;;5026628;28;20843;-54
2022/05/16 10:43:24;;;;;;;1.77;1.20;;;22.40;74.10;;;;;;5023196;28;20239;-51
2022/05/16 10:46:01;;;;;;;2.77;1.17;;;22.40;73.00;;;;;;5023225;28;20742;-48
2022/05/16 10:48:39;;;;;;;3.23;1.50;;;22.50;72.50;;;;;;5005464;28;21161;-50
2022/05/16 10:51:12;;;;;;;3.97;1.13;;;22.70;73.10;;;;;;5024046;28;20287;-52
2022/05/16 10:53:45;;;;;;;2.73;1.67;;;22.90;72.10;;;;;;5021645;28;20262;-53
2022/05/16 10:56:37;;;;;;;3.60;1.77;;;22.80;71.30;;;;;;5020441;28;20309;-55
2022/05/16 10:59:14;;;;;;;3.43;1.63;;;22.70;68.50;;;;;;5022251;28;20203;-51
2022/05/16 11:01:47;;;;;;;4.20;1.63;;;22.50;70.50;;;;;;5022389;28;20212;-51
2022/05/16 11:04:38;;;;;;;2.37;1.40;;;22.40;71.00;;;;;;5005656;28;20212;-52
2022/05/16 11:07:15;;;;;;;2.70;1.50;;;22.30;71.50;;;;;;5032345;28;20220;-51
2022/05/16 11:09:50;;;;;;;2.10;1.60;;;22.30;71.90;;;;;;5023725;28;20652;-50
2022/05/16 11:12:25;;;;;;;2.50;1.00;;;22.40;71.80;;;;;;5023930;28;20629;-52
2022/05/16 11:15:00;;;;;;;3.53;1.23;;;22.70;70.70;;;;;;5022414;28;20226;-54
2022/05/16 11:17:34;;;;;;;3.23;1.70;;;22.80;69.30;;;;;;5019648;28;20303;-52
2022/05/16 11:20:09;;;;;;;6.65;1.90;;;22.90;69.10;;;;;;5013651;28;20204;-55
2022/05/16 11:22:39;;;;;;;4.37;1.33;;;22.90;69.30;;;;;;5025331;28;20994;-55
2022/05/16 11:25:15;;;;;;;3.47;1.57;;;22.90;69.30;;;;;;5022493;28;20608;-54
2022/05/16 11:27:57;;;;;;;1.42;1.30;;;23.00;71.30;;;;;;5025889;28;20307;-50
2022/05/16 11:30:35;;;;;;;2.53;1.93;;;23.20;70.40;;;;;;5022450;28;20199;-51
2022/05/16 11:33:13;;;;;;;2.93;1.80;;;23.30;69.10;;;;;;5025986;28;20204;-53
2022/05/16 11:35:44;;;;;;;4.00;1.58;;;23.30;68.40;;;;;;5012532;28;20281;-51
2022/05/16 11:38:33;;;;;;;2.90;1.60;;;23.30;68.60;;;;;;5027899;28;20603;-52
2022/05/16 11:41:09;;;;;;;3.30;1.40;;;23.50;67.80;;;;;;5026489;28;20211;-53
2022/05/16 11:43:41;;;;;;;2.20;1.80;;;23.60;68.90;;;;;;5024074;28;20584;-49
2022/05/16 11:46:23;;;;;;;3.20;1.70;;;23.60;67.90;;;;;;5024243;28;20593;-53
2022/05/16 11:49:08;;;;;;;3.58;1.67;;;23.60;67.40;;;;;;5026030;28;20279;-51
2022/05/16 11:51:57;;;;;;;2.38;1.50;;;23.70;66.80;;;;;;5027811;28;20800;-51
2022/05/16 11:54:27;;;;;;;1.55;1.35;;;23.60;66.10;;;;;;5021695;28;20189;-52
2022/05/16 12:02:52;;;;;;;4.82;1.60;;;23.70;66.00;;;;;;5024791;28;20265;-53
2022/05/16 12:05:38;;;;;;;1.52;1.35;;;23.80;65.70;;;;;;5007323;28;20203;-56
2022/05/16 12:08:31;;;;;;;4.07;1.42;;;23.80;65.10;;;;;;5026791;28;20225;-54
2022/05/16 12:11:10;;;;;;;3.70;1.67;;;23.90;64.60;;;;;;5034864;28;20281;-48
2022/05/16 12:13:39;;;;;;;1.85;1.17;;;24.10;63.40;;;;;;5023490;28;21000;-51
2022/05/16 12:16:19;;;;;;;4.07;1.30;;;24.20;64.60;;;;;;5017801;28;20224;-54
2022/05/16 12:18:49;;;;;;;3.53;1.38;;;24.30;63.10;;;;;;5025758;28;20689;-52
2022/05/16 12:21:23;;;;;;;2.53;1.05;;;24.40;62.40;;;;;;5007698;28;20211;-56
2022/05/16 12:24:00;;;;;;;2.35;1.30;;;24.40;60.10;;;;;;5034680;28;20275;-49
2022/05/16 12:26:58;;;;;;;3.50;1.58;;;24.50;59.60;;;;;;5021650;28;20212;-52
2022/05/16 12:29:31;;;;;;;3.60;1.42;;;24.50;59.80;;;;;;5013985;28;20227;-54
2022/05/16 12:32:00;;;;;;;1.65;1.48;;;24.50;59.60;;;;;;5013032;28;20291;-56
2022/05/16 12:34:48;;;;;;;1.83;1.23;;;24.60;60.50;;;;;;5019688;28;20192;-53
2022/05/16 12:37:18;;;;;;;2.67;1.45;;;24.70;59.50;;;;;;5003930;28;20782;-54
2022/05/16 12:39:52;;;;;;;2.15;1.30;;;24.80;58.90;;;;;;5024889;28;20261;-55
2022/05/16 12:42:41;;;;;;;2.30;1.45;;;24.70;58.90;;;;;;5021483;28;20201;-54
2022/05/16 12:45:24;;;;;;;3.00;1.45;;;24.70;58.20;;;;;;5024766;28;20197;-52
2022/05/16 12:48:12;;;;;;;4.25;1.30;;;24.90;59.10;;;;;;5024196;28;20219;-51
2022/05/16 12:51:19;;;;;;;2.75;1.40;;;25.10;58.40;;;;;;5001691;28;20216;-51
2022/05/16 12:54:19;;;;;;;2.00;1.55;;;25.30;58.90;;;;;;5014987;28;20279;-54
2022/05/16 12:56:49;;;;;;;3.20;1.25;;;25.70;57.50;;;;;;5005890;28;20247;-55
2022/05/16 12:59:41;;;;;;;3.50;1.40;;;25.90;57.00;;;;;;5023561;28;20199;-56
2022/05/16 13:02:16;;;;;;;2.50;1.40;;;26.10;54.50;;;;;;5020526;28;20204;-51
2022/05/16 13:05:00;;;;;;;4.60;1.52;;;26.20;55.80;;;;;;5020771;28;20227;-52
2022/05/16 13:07:35;;;;;;;4.72;2.10;;;26.30;55.50;;;;;;5005677;28;20215;-56
2022/05/16 13:10:07;;;;;;;4.53;1.33;;;26.40;54.50;;;;;;5031358;28;20203;-54
2022/05/16 13:12:44;;;;;;;2.95;1.90;;;26.50;55.10;;;;;;5013242;28;20198;-53
2022/05/16 13:15:24;;;;;;;4.10;1.50;;;26.70;53.80;;;;;;5023142;28;20207;-54
2022/05/16 13:17:57;;;;;;;3.83;1.80;;;26.80;53.50;;;;;;5022555;28;20216;-52
2022/05/16 13:20:32;;;;;;;2.63;1.63;;;26.70;53.30;;;;;;5018723;28;20577;-56
2022/05/16 13:23:00;;;;;;;1.98;1.25;;;26.90;52.90;;;;;;4995809;28;20564;-56
2022/05/16 13:25:30;;;;;;;2.70;1.58;;;27.00;51.60;;;;;;5018867;28;20226;-55
2022/05/16 13:30:46;;;;;;;5.05;1.88;;;27.00;52.20;;;;;;5024202;28;20203;-54
2022/05/16 13:33:24;;;;;;;2.75;1.17;;;26.90;53.00;;;;;;5013817;28;20199;-55
2022/05/16 13:35:53;;;;;;;2.53;1.42;;;26.90;53.40;;;;;;5012580;28;20227;-53
2022/05/16 13:38:20;;;;;;;2.67;1.35;;;26.80;52.30;;;;;;5005657;28;20211;-54
2022/05/16 13:40:48;;;;;;;2.60;1.52;;;26.70;53.50;;;;;;5025045;28;20207;-50
2022/05/16 13:43:16;;;;;;;2.35;1.45;;;26.80;53.90;;;;;;5020520;28;20824;-51
2022/05/16 13:45:43;;;;;;;2.63;1.40;;;27.10;53.20;;;;;;5013210;28;20306;-55
2022/05/16 13:48:13;;;;;;;1.70;1.20;;;27.30;52.20;;;;;;5018514;28;20204;-55
2022/05/16 13:50:42;;;;;;;3.17;1.30;;;27.60;51.50;;;;;;5017467;28;20196;-55